createdAt,value
2023-08-11T00:01:12.905Z,14.87
2023-08-11T00:03:40.824Z,14.87
2023-08-11T00:06:08.809Z,14.87
2023-08-11T00:08:39.314Z,14.89
2023-08-11T00:11:07.478Z,14.86
2023-08-11T00:13:36.633Z,14.84
2023-08-11T00:16:06.108Z,14.86
2023-08-11T00:18:34.005Z,14.87
2023-08-11T00:21:01.854Z,14.87
2023-08-11T00:23:31.161Z,14.86
2023-08-11T00:25:59.411Z,14.80
2023-08-11T00:28:28.333Z,14.80
2023-08-11T00:30:56.428Z,14.81
2023-08-11T00:33:24.401Z,14.84
2023-08-11T00:35:52.709Z,14.79
2023-08-11T00:38:23.354Z,14.74
2023-08-11T00:40:53.103Z,14.77
2023-08-11T00:43:20.961Z,14.74
2023-08-11T00:45:50.489Z,14.69
2023-08-11T00:48:18.610Z,14.69
2023-08-11T00:50:46.969Z,14.67
2023-08-11T00:53:15.328Z,14.68
2023-08-11T00:55:44.117Z,14.69
2023-08-11T00:58:11.974Z,14.71
2023-08-11T01:00:40.381Z,14.69
2023-08-11T01:03:09.459Z,14.62
2023-08-11T01:05:44.334Z,14.52
2023-08-11T01:08:19.240Z,14.54
2023-08-11T01:10:59.930Z,14.57
2023-08-11T01:13:30.693Z,14.60
2023-08-11T01:15:59.477Z,14.55
2023-08-11T01:18:28.139Z,14.49
2023-08-11T01:21:00.549Z,14.48
2023-08-11T01:23:28.447Z,14.47
2023-08-11T01:25:57.298Z,14.44
2023-08-11T01:28:29.027Z,14.35
2023-08-11T01:30:57.692Z,14.33
2023-08-11T01:33:26.844Z,14.34
2023-08-11T01:35:55.972Z,14.33
2023-08-11T01:38:25.070Z,14.29
2023-08-11T01:40:53.606Z,14.22
2023-08-11T01:43:22.861Z,14.19
2023-08-11T01:45:51.441Z,14.24
2023-08-11T01:48:21.016Z,14.27
2023-08-11T01:50:49.081Z,14.28
2023-08-11T01:53:17.261Z,14.30
2023-08-11T01:55:46.031Z,14.31
2023-08-11T01:58:14.150Z,14.31
2023-08-11T02:00:42.249Z,14.25
2023-08-11T02:03:10.587Z,14.20
2023-08-11T02:05:38.962Z,14.22
2023-08-11T02:08:07.216Z,14.21
2023-08-11T02:10:35.055Z,14.15
2023-08-11T02:13:03.112Z,14.10
2023-08-11T02:15:30.963Z,14.10
2023-08-11T02:17:58.831Z,14.13
2023-08-11T02:20:27.478Z,14.17
2023-08-11T02:22:55.347Z,14.13
2023-08-11T02:25:25.868Z,14.12
2023-08-11T02:27:54.495Z,14.13
2023-08-11T02:30:23.574Z,14.11
2023-08-11T02:32:52.308Z,13.96
2023-08-11T02:35:20.660Z,13.81
2023-08-11T02:37:50.125Z,13.69
2023-08-11T02:40:21.531Z,13.60
2023-08-11T02:42:59.241Z,13.52
2023-08-11T02:45:27.615Z,13.42
2023-08-11T02:47:57.864Z,13.36
2023-08-11T02:50:27.562Z,13.33
2023-08-11T02:52:56.044Z,13.32
2023-08-11T02:55:24.127Z,13.32
2023-08-11T02:57:52.231Z,13.31
2023-08-11T03:00:20.306Z,13.30
2023-08-11T03:02:48.757Z,13.33
2023-08-11T03:05:17.889Z,13.34
2023-08-11T03:07:47.670Z,13.37
2023-08-11T03:10:15.578Z,13.39
2023-08-11T03:12:44.420Z,13.42
2023-08-11T03:15:14.945Z,13.41
2023-08-11T03:17:43.760Z,13.38
2023-08-11T03:20:14.852Z,13.33
2023-08-11T03:22:45.144Z,13.30
2023-08-11T03:25:14.015Z,13.25
2023-08-11T03:27:44.500Z,13.18
2023-08-11T03:30:17.232Z,13.15
2023-08-11T03:32:49.569Z,13.20
2023-08-11T03:35:18.892Z,13.25
2023-08-11T03:37:47.808Z,13.29
2023-08-11T03:40:18.070Z,13.32
2023-08-11T03:42:51.319Z,13.33
2023-08-11T03:45:19.700Z,13.36
2023-08-11T03:47:47.635Z,13.35
2023-08-11T03:50:20.725Z,13.34
2023-08-11T03:52:48.918Z,13.39
2023-08-11T03:55:17.246Z,13.46
2023-08-11T03:57:46.717Z,13.53
2023-08-11T04:00:16.972Z,13.61
2023-08-11T04:02:49.653Z,13.65
2023-08-11T04:05:18.739Z,13.64
2023-08-11T04:07:46.751Z,13.64
2023-08-11T04:10:16.318Z,13.66
2023-08-11T04:12:44.260Z,13.70
2023-08-11T04:15:12.155Z,13.77
2023-08-11T04:17:40.121Z,13.81
2023-08-11T04:20:15.479Z,13.82
2023-08-11T04:22:43.832Z,13.85
2023-08-11T04:25:13.239Z,13.95
2023-08-11T04:27:43.819Z,13.99
2023-08-11T04:30:13.521Z,14.03
2023-08-11T04:32:43.014Z,14.08
2023-08-11T04:35:11.200Z,14.16
2023-08-11T04:37:40.504Z,14.24
2023-08-11T04:40:14.749Z,14.32
2023-08-11T04:42:44.622Z,14.34
2023-08-11T04:45:17.220Z,14.35
2023-08-11T04:47:46.435Z,14.42
2023-08-11T04:50:18.191Z,14.52
2023-08-11T04:52:47.300Z,14.57
2023-08-11T04:55:15.863Z,14.63
2023-08-11T04:57:44.940Z,14.70
2023-08-11T05:00:18.705Z,14.76
2023-08-11T05:02:47.287Z,14.82
2023-08-11T05:05:15.454Z,14.83
2023-08-11T05:07:43.384Z,14.88
2023-08-11T05:10:12.331Z,14.97
2023-08-11T05:12:40.734Z,15.06
2023-08-11T05:15:09.061Z,15.15
2023-08-11T05:17:37.036Z,15.29
2023-08-11T05:20:09.726Z,15.43
2023-08-11T05:22:38.471Z,15.57
2023-08-11T05:25:07.402Z,15.68
2023-08-11T05:27:35.211Z,15.79
2023-08-11T05:30:04.107Z,15.91
2023-08-11T05:32:32.973Z,16.08
2023-08-11T05:35:00.963Z,16.21
2023-08-11T05:37:29.391Z,16.26
2023-08-11T05:39:57.282Z,16.34
2023-08-11T05:42:25.183Z,16.50
2023-08-11T05:44:53.230Z,16.62
2023-08-11T05:47:21.434Z,16.69
2023-08-11T05:49:49.495Z,16.82
2023-08-11T05:52:17.317Z,16.94
2023-08-11T05:54:45.441Z,17.03
2023-08-11T05:57:13.354Z,17.14
2023-08-11T05:59:41.217Z,17.26
2023-08-11T06:02:09.152Z,17.41
2023-08-11T06:04:37.500Z,17.51
2023-08-11T06:07:05.330Z,17.54
2023-08-11T06:09:33.956Z,17.62
2023-08-11T06:12:01.914Z,17.71
2023-08-11T06:14:29.807Z,17.82
2023-08-11T06:16:57.729Z,17.93
2023-08-11T06:19:26.589Z,18.03
2023-08-11T06:21:55.791Z,18.17
2023-08-11T06:24:24.572Z,18.31
2023-08-11T06:26:55.546Z,18.42
2023-08-11T06:29:23.442Z,18.43
2023-08-11T06:31:51.386Z,18.42
2023-08-11T06:34:19.428Z,18.49
2023-08-11T06:36:47.357Z,18.55
2023-08-11T06:39:16.219Z,18.56
2023-08-11T06:41:44.204Z,18.58
2023-08-11T06:44:12.221Z,18.58
2023-08-11T06:46:40.099Z,18.61
2023-08-11T06:49:08.185Z,18.72
2023-08-11T06:51:36.243Z,18.85
2023-08-11T06:54:04.393Z,19.02
2023-08-11T06:56:32.373Z,19.07
2023-08-11T06:59:00.288Z,19.12
2023-08-11T07:01:28.217Z,19.20
2023-08-11T07:03:56.262Z,19.24
2023-08-11T07:06:24.121Z,19.29
2023-08-11T07:08:52.073Z,19.35
2023-08-11T07:11:19.975Z,19.45
2023-08-11T07:13:47.857Z,19.52
2023-08-11T07:16:15.775Z,19.57
2023-08-11T07:18:43.716Z,19.69
2023-08-11T07:21:11.737Z,19.71
2023-08-11T07:23:39.620Z,19.85
2023-08-11T07:26:07.855Z,20.08
2023-08-11T07:28:35.647Z,20.35
2023-08-11T07:31:03.682Z,20.60
2023-08-11T07:33:31.649Z,20.82
2023-08-11T07:35:59.817Z,21.01
2023-08-11T07:38:27.800Z,21.20
2023-08-11T07:40:55.760Z,21.38
2023-08-11T07:43:23.620Z,21.55
2023-08-11T07:45:51.465Z,21.76
2023-08-11T07:48:19.747Z,21.93
2023-08-11T07:50:47.583Z,21.90
2023-08-11T07:53:15.508Z,21.90
2023-08-11T07:55:43.470Z,21.87
2023-08-11T07:58:11.405Z,21.80
2023-08-11T08:00:39.371Z,21.79
2023-08-11T08:03:07.722Z,21.90
2023-08-11T08:05:36.926Z,22.22
2023-08-11T08:08:05.074Z,22.40
2023-08-11T08:10:32.935Z,22.46
2023-08-11T08:13:00.863Z,22.36
2023-08-11T08:15:29.742Z,22.38
2023-08-11T08:17:57.687Z,22.53
2023-08-11T08:20:25.866Z,22.72
2023-08-11T08:22:53.803Z,22.83
2023-08-11T08:25:21.743Z,22.92
2023-08-11T08:28:05.616Z,23.01
2023-08-11T08:30:35.221Z,23.19
2023-08-11T08:33:03.630Z,23.35
2023-08-11T08:35:32.161Z,23.54
2023-08-11T08:38:00.214Z,23.67
2023-08-11T08:40:28.852Z,23.78
2023-08-11T08:42:56.680Z,23.91
2023-08-11T08:45:25.124Z,24.02
2023-08-11T08:47:54.212Z,24.15
2023-08-11T08:50:24.079Z,24.25
2023-08-11T08:52:53.391Z,24.40
2023-08-11T08:55:21.353Z,24.52
2023-08-11T08:57:50.024Z,24.67
2023-08-11T09:00:25.011Z,24.83
2023-08-11T09:02:55.260Z,24.94
2023-08-11T09:05:23.565Z,25.02
2023-08-11T09:07:51.791Z,25.06
2023-08-11T09:10:20.213Z,25.10
2023-08-11T09:12:49.828Z,25.14
2023-08-11T09:15:17.641Z,25.17
2023-08-11T09:17:48.422Z,25.29
2023-08-11T09:20:20.974Z,25.39
2023-08-11T09:22:49.109Z,25.41
2023-08-11T09:25:17.483Z,25.36
2023-08-11T09:27:50.632Z,25.45
2023-08-11T09:30:18.576Z,25.52
2023-08-11T09:32:50.611Z,25.38
2023-08-11T09:35:24.231Z,25.20
2023-08-11T09:37:56.183Z,25.10
2023-08-11T09:40:24.308Z,25.25
2023-08-11T09:42:56.454Z,25.49
2023-08-11T09:45:25.195Z,25.70
2023-08-11T09:47:53.351Z,25.87
2023-08-11T09:50:22.273Z,26.04
2023-08-11T09:52:50.722Z,26.20
2023-08-11T09:55:19.693Z,26.41
2023-08-11T09:57:48.697Z,26.61
2023-08-11T10:00:20.768Z,26.76
2023-08-11T10:02:53.448Z,26.82
2023-08-11T10:05:21.922Z,27.04
2023-08-11T10:07:51.814Z,27.34
2023-08-11T10:10:21.490Z,27.60
2023-08-11T10:13:12.527Z,27.73
2023-08-11T10:15:42.900Z,27.75
2023-08-11T10:18:11.591Z,27.89
2023-08-11T10:20:39.949Z,27.82
2023-08-11T10:23:09.537Z,27.75
2023-08-11T10:25:37.729Z,27.82
2023-08-11T10:28:08.448Z,27.92
2023-08-11T10:30:37.440Z,28.10
2023-08-11T10:33:10.289Z,28.06
2023-08-11T10:35:39.107Z,27.92
2023-08-11T10:38:07.149Z,28.08
2023-08-11T10:40:36.555Z,28.12
2023-08-11T10:43:05.650Z,27.85
2023-08-11T10:45:34.552Z,27.44
2023-08-11T10:48:10.387Z,27.37
2023-08-11T10:50:39.624Z,27.44
2023-08-11T10:53:20.876Z,27.74
2023-08-11T10:56:06.696Z,28.09
2023-08-11T10:58:34.642Z,28.24
2023-08-11T11:01:02.654Z,28.40
2023-08-11T11:03:30.862Z,28.62
2023-08-11T11:05:59.294Z,28.85
2023-08-11T11:08:27.390Z,29.01
2023-08-11T11:10:55.711Z,29.04
2023-08-11T11:13:24.506Z,28.92
2023-08-11T11:15:52.370Z,29.10
2023-08-11T11:18:23.303Z,29.29
2023-08-11T11:20:53.541Z,29.40
2023-08-11T11:23:21.889Z,29.61
2023-08-11T11:25:50.835Z,29.55
2023-08-11T11:28:18.743Z,29.40
2023-08-11T11:30:47.142Z,29.27
2023-08-11T11:33:15.704Z,29.01
2023-08-11T11:35:44.040Z,28.62
2023-08-11T11:38:12.611Z,28.30
2023-08-11T11:40:42.075Z,28.13
2023-08-11T11:43:11.549Z,28.08
2023-08-11T11:45:39.776Z,28.20
2023-08-11T11:48:08.386Z,28.37
2023-08-11T11:50:40.662Z,28.35
2023-08-11T11:53:09.880Z,28.39
2023-08-11T11:55:48.525Z,28.55
2023-08-11T11:58:17.326Z,28.86
2023-08-11T12:00:48.458Z,29.18
2023-08-11T12:03:16.601Z,29.57
2023-08-11T12:05:45.040Z,29.66
2023-08-11T12:08:20.909Z,29.59
2023-08-11T12:10:53.917Z,29.65
2023-08-11T12:13:22.840Z,29.54
2023-08-11T12:15:50.837Z,29.24
2023-08-11T12:18:20.390Z,29.01
2023-08-11T12:20:49.017Z,29.07
2023-08-11T12:23:17.153Z,29.39
2023-08-11T12:25:45.118Z,29.69
2023-08-11T12:28:13.037Z,29.57
2023-08-11T12:30:40.947Z,29.72
2023-08-11T12:33:09.684Z,29.89
2023-08-11T12:35:38.281Z,30.02
2023-08-11T12:38:07.186Z,30.27
2023-08-11T12:40:35.698Z,30.43
2023-08-11T12:43:04.756Z,30.61
2023-08-11T12:45:32.970Z,30.76
2023-08-11T12:48:00.941Z,30.88
2023-08-11T12:50:32.160Z,30.88
2023-08-11T12:53:01.525Z,30.46
2023-08-11T12:55:30.956Z,30.06
2023-08-11T12:58:03.534Z,29.55
2023-08-11T13:00:33.704Z,29.30
2023-08-11T13:03:02.554Z,29.31
2023-08-11T13:05:31.155Z,29.29
2023-08-11T13:07:59.231Z,29.29
2023-08-11T13:10:27.643Z,29.67
2023-08-11T13:12:57.868Z,30.14
2023-08-11T13:15:25.926Z,30.53
2023-08-11T13:17:56.865Z,30.81
2023-08-11T13:20:25.002Z,30.97
2023-08-11T13:22:52.976Z,31.12
2023-08-11T13:25:20.886Z,31.45
2023-08-11T13:27:48.922Z,31.82
2023-08-11T13:30:17.190Z,32.12
2023-08-11T13:32:47.501Z,32.20
2023-08-11T13:35:15.646Z,32.35
2023-08-11T13:37:43.766Z,32.36
2023-08-11T13:40:12.736Z,32.36
2023-08-11T13:42:43.452Z,32.19
2023-08-11T13:45:12.074Z,31.63
2023-08-11T13:47:39.940Z,31.33
2023-08-11T13:50:08.397Z,31.30
2023-08-11T13:52:39.461Z,31.28
2023-08-11T13:55:10.513Z,30.94
2023-08-11T13:57:38.561Z,30.89
2023-08-11T14:00:09.418Z,31.11
2023-08-11T14:02:37.663Z,31.31
2023-08-11T14:05:06.343Z,31.61
2023-08-11T14:07:36.168Z,31.97
2023-08-11T14:10:04.780Z,32.20
2023-08-11T14:12:32.620Z,32.73
2023-08-11T14:15:01.511Z,33.35
2023-08-11T14:17:29.557Z,33.92
2023-08-11T14:19:57.509Z,34.38
2023-08-11T14:22:25.410Z,34.54
2023-08-11T14:24:55.568Z,34.38
2023-08-11T14:27:23.991Z,34.31
2023-08-11T14:29:52.066Z,34.58
2023-08-11T14:32:26.060Z,34.87
2023-08-11T14:34:54.363Z,35.02
2023-08-11T14:37:22.211Z,35.22
2023-08-11T14:39:50.480Z,35.48
2023-08-11T14:42:18.613Z,35.55
2023-08-11T14:44:46.594Z,35.57
2023-08-11T14:47:15.459Z,35.92
2023-08-11T14:49:44.562Z,36.29
2023-08-11T14:52:13.851Z,36.72
2023-08-11T14:54:42.898Z,37.14
2023-08-11T14:57:15.948Z,37.65
2023-08-11T14:59:46.696Z,38.06
2023-08-11T15:02:14.659Z,38.49
2023-08-11T15:04:42.620Z,39.02
2023-08-11T15:07:10.792Z,39.58
2023-08-11T15:09:40.718Z,39.73
2023-08-11T15:12:09.683Z,39.85
2023-08-11T15:14:38.329Z,40.21
2023-08-11T15:17:06.410Z,40.50
2023-08-11T15:19:34.429Z,40.58
2023-08-11T15:22:03.304Z,40.51
2023-08-11T15:24:34.085Z,40.65
2023-08-11T15:27:02.690Z,40.84
2023-08-11T15:29:30.600Z,41.16
2023-08-11T15:31:59.002Z,41.38
2023-08-11T15:34:27.327Z,41.61
2023-08-11T15:36:55.170Z,41.85
2023-08-11T15:39:23.031Z,42.25
2023-08-11T15:41:50.827Z,42.57
2023-08-11T15:44:21.453Z,42.66
2023-08-11T15:46:51.410Z,42.51
2023-08-11T15:49:19.312Z,42.37
2023-08-11T15:51:47.313Z,42.74
2023-08-11T15:54:15.240Z,43.17
2023-08-11T15:56:43.165Z,43.73
2023-08-11T15:59:11.454Z,44.15
2023-08-11T16:01:40.087Z,44.37
2023-08-11T16:04:08.390Z,44.21
2023-08-11T16:06:36.398Z,44.23
2023-08-11T16:09:06.931Z,43.94
2023-08-11T16:11:35.687Z,43.91
2023-08-11T16:14:03.914Z,44.06
2023-08-11T16:16:31.889Z,44.10
2023-08-11T16:19:00.824Z,44.13
2023-08-11T16:21:28.791Z,44.26
2023-08-11T16:23:56.936Z,44.31
2023-08-11T16:26:24.980Z,44.71
2023-08-11T16:28:53.040Z,45.27
2023-08-11T16:31:21.496Z,45.44
2023-08-11T16:33:50.233Z,45.47
2023-08-11T16:36:21.385Z,45.61
2023-08-11T16:38:49.784Z,45.76
2023-08-11T16:41:18.769Z,45.84
2023-08-11T16:43:47.293Z,46.07
2023-08-11T16:46:17.223Z,46.30
2023-08-11T16:48:45.410Z,46.41
2023-08-11T16:51:15.397Z,46.40
2023-08-11T16:53:43.733Z,46.44
2023-08-11T16:56:12.087Z,46.52
2023-08-11T16:58:40.040Z,46.58
2023-08-11T17:01:07.940Z,46.57
2023-08-11T17:03:36.466Z,46.49
2023-08-11T17:06:05.440Z,46.58
2023-08-11T17:08:34.459Z,46.63
2023-08-11T17:11:04.243Z,46.51
2023-08-11T17:13:32.914Z,46.46
2023-08-11T17:16:01.571Z,46.52
2023-08-11T17:18:29.676Z,46.50
2023-08-11T17:21:00.239Z,45.94
2023-08-11T17:23:29.622Z,43.83
2023-08-11T17:25:57.487Z,41.84
2023-08-11T17:28:25.792Z,39.99
2023-08-11T17:30:58.968Z,38.41
2023-08-11T17:33:28.603Z,36.98
2023-08-11T17:35:59.682Z,35.79
2023-08-11T17:38:27.694Z,34.74
2023-08-11T17:40:55.463Z,33.80
2023-08-11T17:43:24.246Z,32.90
2023-08-11T17:45:52.418Z,32.08
2023-08-11T17:48:20.431Z,31.37
2023-08-11T17:50:48.395Z,30.74
2023-08-11T17:53:16.496Z,30.12
2023-08-11T17:55:44.437Z,29.58
2023-08-11T17:58:12.437Z,29.01
2023-08-11T18:00:42.303Z,28.53
2023-08-11T18:03:10.698Z,28.07
2023-08-11T18:05:39.929Z,27.60
2023-08-11T18:08:08.403Z,27.11
2023-08-11T18:10:36.393Z,26.71
2023-08-11T18:13:04.423Z,26.40
2023-08-11T18:15:32.354Z,26.11
2023-08-11T18:18:00.463Z,25.84
2023-08-11T18:20:28.776Z,25.59
2023-08-11T18:22:59.039Z,25.34
2023-08-11T18:25:27.137Z,25.07
2023-08-11T18:27:55.704Z,24.81
2023-08-11T18:30:23.835Z,24.57
2023-08-11T18:32:51.942Z,24.37
2023-08-11T18:35:20.036Z,24.18
2023-08-11T18:37:47.989Z,23.98
2023-08-11T18:40:16.198Z,23.78
2023-08-11T18:42:44.156Z,23.59
2023-08-11T18:45:12.168Z,23.38
2023-08-11T18:47:40.486Z,23.18
2023-08-11T18:50:09.031Z,23.00
2023-08-11T18:52:37.271Z,22.86
2023-08-11T18:55:05.871Z,22.70
2023-08-11T18:57:35.011Z,22.56
2023-08-11T19:00:04.758Z,22.45
2023-08-11T19:02:32.622Z,22.34
2023-08-11T19:05:00.531Z,22.24
2023-08-11T19:07:28.484Z,22.11
2023-08-11T19:09:56.302Z,22.00
2023-08-11T19:12:24.516Z,21.88
2023-08-11T19:14:52.534Z,21.77
2023-08-11T19:17:21.844Z,21.65
2023-08-11T19:19:49.652Z,21.52
2023-08-11T19:22:20.505Z,21.40
2023-08-11T19:24:48.549Z,21.29
2023-08-11T19:27:16.483Z,21.18
2023-08-11T19:29:44.703Z,21.07
2023-08-11T19:32:13.499Z,20.97
2023-08-11T19:34:41.784Z,20.88
2023-08-11T19:37:09.598Z,20.77
2023-08-11T19:39:38.509Z,20.68
2023-08-11T19:42:06.382Z,20.60
2023-08-11T19:44:37.453Z,20.51
2023-08-11T19:47:05.518Z,20.42
2023-08-11T19:49:33.349Z,20.31
2023-08-11T19:52:01.471Z,20.22
2023-08-11T19:54:29.865Z,20.15
2023-08-11T19:56:57.742Z,20.07
2023-08-11T19:59:25.733Z,20.02
2023-08-11T20:01:54.053Z,19.96
2023-08-11T20:04:22.962Z,19.87
2023-08-11T20:06:51.093Z,19.79
2023-08-11T20:09:20.426Z,19.72
2023-08-11T20:11:48.408Z,19.62
2023-08-11T20:14:17.092Z,19.56
2023-08-11T20:16:46.359Z,19.54
2023-08-11T20:19:14.346Z,19.50
2023-08-11T20:21:43.627Z,19.46
2023-08-11T20:24:11.890Z,19.41
2023-08-11T20:26:39.770Z,19.33
2023-08-11T20:29:07.632Z,19.21
2023-08-11T20:31:35.632Z,19.13
2023-08-11T20:34:03.695Z,19.00
2023-08-11T20:36:31.575Z,18.89
2023-08-11T20:38:59.485Z,18.85
2023-08-11T20:41:27.417Z,18.87
2023-08-11T20:43:55.447Z,18.89
2023-08-11T20:46:23.299Z,18.90
2023-08-11T20:48:51.530Z,18.81
2023-08-11T20:51:20.032Z,18.78
2023-08-11T20:53:50.571Z,18.77
2023-08-11T20:56:18.459Z,18.72
2023-08-11T20:58:46.804Z,18.65
2023-08-11T21:01:15.025Z,18.58
2023-08-11T21:03:43.234Z,18.54
2023-08-11T21:06:11.428Z,18.52
2023-08-11T21:08:45.705Z,18.49
2023-08-11T21:11:15.219Z,18.49
2023-08-11T21:13:43.536Z,18.47
2023-08-11T21:16:12.555Z,18.47
2023-08-11T21:18:40.692Z,18.45
2023-08-11T21:21:08.701Z,18.40
2023-08-11T21:23:36.704Z,18.38
2023-08-11T21:26:04.575Z,18.34
2023-08-11T21:28:32.537Z,18.29
2023-08-11T21:31:15.571Z,18.22
2023-08-11T21:34:08.196Z,18.13
2023-08-11T21:36:37.482Z,18.03
2023-08-11T21:39:09.317Z,17.90
2023-08-11T21:41:37.434Z,17.86
2023-08-11T21:44:06.070Z,17.79
2023-08-11T21:46:37.807Z,17.64
2023-08-11T21:49:06.155Z,17.49
2023-08-11T21:51:34.262Z,17.45
2023-08-11T21:54:02.420Z,17.43
2023-08-11T21:56:30.329Z,17.42
2023-08-11T21:58:58.388Z,17.45
2023-08-11T22:01:26.331Z,17.50
2023-08-11T22:03:54.306Z,17.53
2023-08-11T22:06:22.273Z,17.54
2023-08-11T22:08:50.703Z,17.53
2023-08-11T22:11:35.424Z,17.46
2023-08-11T22:14:05.925Z,17.37
2023-08-11T22:16:34.150Z,17.28
2023-08-11T22:19:02.101Z,17.20
2023-08-11T22:21:30.055Z,17.16
2023-08-11T22:23:57.902Z,17.12
2023-08-11T22:26:25.700Z,17.09
2023-08-11T22:28:53.587Z,17.06
2023-08-11T22:31:21.705Z,17.01
2023-08-11T22:33:49.582Z,17.01
2023-08-11T22:36:17.643Z,17.06
2023-08-11T22:38:45.535Z,17.12
2023-08-11T22:41:13.349Z,17.17
2023-08-11T22:43:41.195Z,17.20
2023-08-11T22:46:09.104Z,17.21
2023-08-11T22:48:37.125Z,17.21
2023-08-11T22:51:05.175Z,17.21
2023-08-11T22:53:36.619Z,17.20
2023-08-11T22:56:07.296Z,17.19
2023-08-11T22:58:35.086Z,17.17
2023-08-11T23:01:04.130Z,17.16
2023-08-11T23:03:31.930Z,17.13
2023-08-11T23:05:59.889Z,17.13
2023-08-11T23:08:27.668Z,17.18
2023-08-11T23:10:55.670Z,17.22
2023-08-11T23:13:23.551Z,17.26
2023-08-11T23:15:51.451Z,17.30
2023-08-11T23:18:19.353Z,17.33
2023-08-11T23:20:47.599Z,17.32
2023-08-11T23:23:15.532Z,17.31
2023-08-11T23:25:44.170Z,17.33
2023-08-11T23:28:12.133Z,17.34
2023-08-11T23:30:39.940Z,17.35
2023-08-11T23:33:07.954Z,17.36
2023-08-11T23:35:39.631Z,17.36
2023-08-11T23:38:07.466Z,17.36
2023-08-11T23:40:35.292Z,17.36
2023-08-11T23:43:03.385Z,17.36
2023-08-11T23:45:32.057Z,17.36
2023-08-11T23:48:00.036Z,17.37
2023-08-11T23:50:27.976Z,17.37
2023-08-11T23:52:55.878Z,17.40
2023-08-11T23:55:26.036Z,17.42
2023-08-11T23:57:54.567Z,17.42
